createdAt,value
2019-05-09T00:00:36.957Z,7.40
2019-05-09T00:02:58.395Z,2.80
2019-05-09T00:05:00.067Z,2.63
2019-05-09T00:07:03.581Z,2.60
2019-05-09T00:09:05.524Z,2.33
2019-05-09T00:11:07.448Z,2.67
2019-05-09T00:13:09.126Z,2.83
2019-05-09T00:15:13.493Z,4.63
2019-05-09T00:17:15.081Z,3.67
2019-05-09T00:19:17.377Z,3.20
2019-05-09T00:21:27.481Z,3.27
2019-05-09T00:23:29.162Z,4.57
2019-05-09T00:25:30.829Z,4.87
2019-05-09T00:27:33.250Z,3.90
2019-05-09T00:29:43.844Z,4.83
2019-05-09T00:32:03.535Z,3.77
2019-05-09T00:34:07.828Z,4.40
2019-05-09T00:36:09.784Z,3.70
2019-05-09T00:38:13.288Z,9.53
2019-05-09T00:40:15.237Z,4.93
2019-05-09T00:42:16.921Z,4.20
2019-05-09T00:44:23.327Z,4.10
2019-05-09T00:46:43.653Z,3.40
2019-05-09T00:49:14.200Z,5.40
2019-05-09T00:51:15.866Z,7.57
2019-05-09T00:53:17.537Z,5.40
2019-05-09T00:55:19.459Z,4.57
2019-05-09T00:57:33.584Z,5.37
2019-05-09T00:59:35.532Z,4.47
2019-05-09T01:01:37.518Z,5.27
2019-05-09T01:03:39.193Z,5.07
2019-05-09T01:05:41.076Z,4.73
2019-05-09T01:07:43.143Z,5.97
2019-05-09T01:09:45.026Z,10.63
2019-05-09T01:11:46.693Z,4.43
2019-05-09T01:13:48.365Z,4.63
2019-05-09T01:15:50.030Z,5.20
2019-05-09T01:17:53.591Z,7.40
2019-05-09T01:19:55.274Z,6.27
2019-05-09T01:21:56.934Z,8.10
2019-05-09T01:23:58.601Z,9.10
2019-05-09T01:26:00.285Z,7.97
2019-05-09T01:28:03.317Z,5.93
2019-05-09T01:30:05.231Z,7.60
2019-05-09T01:32:14.497Z,6.43
2019-05-09T01:34:23.952Z,5.83
2019-05-09T01:36:45.490Z,6.17
2019-05-09T01:38:47.169Z,5.83
2019-05-09T01:40:48.845Z,6.10
2019-05-09T01:42:50.509Z,6.13
2019-05-09T01:44:53.336Z,4.97
2019-05-09T01:46:55.437Z,6.10
2019-05-09T01:48:57.111Z,7.00
2019-05-09T01:50:58.781Z,8.13
2019-05-09T01:53:00.785Z,10.60
2019-05-09T01:55:03.705Z,9.90
2019-05-09T01:57:05.708Z,10.73
2019-05-09T01:59:07.384Z,6.50
2019-05-09T02:01:09.950Z,9.37
2019-05-09T02:03:13.867Z,8.87
2019-05-09T02:05:15.201Z,12.00
2019-05-09T02:07:16.874Z,12.43
2019-05-09T02:09:18.830Z,13.87
2019-05-09T02:11:20.493Z,14.30
2019-05-09T02:13:23.123Z,11.60
2019-05-09T02:15:39.201Z,13.47
2019-05-09T02:18:02.842Z,15.53
2019-05-09T02:20:03.950Z,17.23
2019-05-09T02:22:25.721Z,16.70
2019-05-09T02:24:27.398Z,20.00
2019-05-09T02:26:29.057Z,18.10
2019-05-09T02:28:31.029Z,19.53
2019-05-09T02:30:35.789Z,19.63
2019-05-09T02:32:36.281Z,25.33
2019-05-09T02:34:38.039Z,18.57
2019-05-09T02:36:39.701Z,22.60
2019-05-09T02:38:41.366Z,22.30
2019-05-09T02:40:43.067Z,23.80
2019-05-09T02:42:48.706Z,23.93
2019-05-09T02:44:49.387Z,23.17
2019-05-09T02:47:03.167Z,23.47
2019-05-09T02:49:04.836Z,24.70
2019-05-09T02:51:09.276Z,20.37
2019-05-09T02:53:10.405Z,21.20
2019-05-09T02:55:12.161Z,25.57
2019-05-09T02:57:14.129Z,22.87
2019-05-09T02:59:31.734Z,23.50
2019-05-09T03:01:40.237Z,27.50
2019-05-09T03:03:41.998Z,27.07
2019-05-09T03:05:43.954Z,21.00
2019-05-09T03:07:49.035Z,26.70
2019-05-09T03:09:51.030Z,24.33
2019-05-09T03:11:52.714Z,23.43
2019-05-09T03:13:54.682Z,28.03
2019-05-09T03:16:00.605Z,25.10
2019-05-09T03:18:02.512Z,22.43
2019-05-09T03:20:09.240Z,21.87
2019-05-09T03:22:14.890Z,22.10
2019-05-09T03:24:18.450Z,16.73
2019-05-09T03:26:24.643Z,21.60
2019-05-09T03:28:38.835Z,21.50
2019-05-09T03:30:41.101Z,22.00
2019-05-09T03:32:43.028Z,22.70
2019-05-09T03:34:44.706Z,20.67
2019-05-09T03:36:47.659Z,21.17
2019-05-09T03:38:49.445Z,22.57
2019-05-09T03:40:51.386Z,21.43
2019-05-09T03:42:53.049Z,16.23
2019-05-09T03:44:54.726Z,26.03
2019-05-09T03:47:17.363Z,15.90
2019-05-09T03:49:20.225Z,19.73
2019-05-09T03:51:21.897Z,17.33
2019-05-09T03:53:23.876Z,18.10
2019-05-09T03:55:32.509Z,20.23
2019-05-09T03:57:37.289Z,20.17
2019-05-09T03:59:39.294Z,14.60
2019-05-09T04:01:40.965Z,20.23
2019-05-09T04:03:42.881Z,20.17
2019-05-09T04:05:56.607Z,18.20
2019-05-09T04:07:48.117Z,16.57
2019-05-09T04:09:50.129Z,16.37
2019-05-09T04:11:51.810Z,12.47
2019-05-09T04:14:00.885Z,17.20
2019-05-09T04:16:02.561Z,12.77
2019-05-09T04:18:04.513Z,17.37
2019-05-09T04:20:08.107Z,12.63
2019-05-09T04:22:09.761Z,13.73
2019-05-09T04:24:11.430Z,13.20
2019-05-09T04:26:20.864Z,12.00
2019-05-09T04:28:22.517Z,9.83
2019-05-09T04:30:24.191Z,12.37
2019-05-09T04:32:27.377Z,10.10
2019-05-09T04:34:29.589Z,10.20
2019-05-09T04:36:40.029Z,11.43
2019-05-09T04:38:41.955Z,13.37
2019-05-09T04:40:45.936Z,11.90
2019-05-09T04:42:47.578Z,17.03
2019-05-09T04:45:03.382Z,12.30
2019-05-09T04:47:04.050Z,10.80
2019-05-09T04:49:08.081Z,10.10
2019-05-09T04:51:09.770Z,8.40
2019-05-09T04:53:11.437Z,13.03
2019-05-09T04:55:14.205Z,9.00
2019-05-09T04:57:17.862Z,11.03
2019-05-09T04:59:19.454Z,12.63
2019-05-09T05:01:34.074Z,13.13
2019-05-09T05:03:37.584Z,9.83
2019-05-09T05:05:40.172Z,15.60
2019-05-09T05:07:42.221Z,22.40
2019-05-09T05:09:43.895Z,8.20
2019-05-09T05:11:47.101Z,14.63
2019-05-09T05:13:49.152Z,14.87
2019-05-09T05:15:50.822Z,7.07
2019-05-09T05:17:52.797Z,11.43
2019-05-09T05:19:54.874Z,12.20
2019-05-09T05:22:02.049Z,10.40
2019-05-09T05:24:12.624Z,9.30
2019-05-09T05:26:14.614Z,8.80
2019-05-09T05:28:17.675Z,15.47
2019-05-09T05:30:20.010Z,10.50
2019-05-09T05:32:28.194Z,8.30
2019-05-09T05:34:34.709Z,12.47
2019-05-09T05:36:38.246Z,8.53
2019-05-09T05:38:39.959Z,12.23
2019-05-09T05:40:45.704Z,13.03
2019-05-09T05:42:47.576Z,5.23
2019-05-09T05:44:48.821Z,6.90
2019-05-09T05:47:10.472Z,6.27
2019-05-09T05:49:12.136Z,6.00
2019-05-09T05:51:13.816Z,5.13
2019-05-09T05:53:15.497Z,17.80
2019-05-09T05:55:18.212Z,5.90
2019-05-09T05:57:20.265Z,10.93
2019-05-09T05:59:22.464Z,7.30
2019-05-09T06:01:24.478Z,9.17
2019-05-09T06:03:28.261Z,5.50
2019-05-09T06:05:29.800Z,10.23
2019-05-09T06:07:31.472Z,6.40
2019-05-09T06:09:33.142Z,7.87
2019-05-09T06:11:35.088Z,8.43
2019-05-09T06:13:37.991Z,4.80
2019-05-09T06:15:40.163Z,8.27
2019-05-09T06:17:42.089Z,9.83
2019-05-09T06:19:43.745Z,8.77
2019-05-09T06:21:47.958Z,6.97
2019-05-09T06:23:49.201Z,9.37
2019-05-09T06:25:50.874Z,7.63
2019-05-09T06:27:52.680Z,5.57
2019-05-09T06:29:54.345Z,4.93
2019-05-09T06:31:58.281Z,11.97
2019-05-09T06:33:59.850Z,5.67
2019-05-09T06:36:01.531Z,5.37
2019-05-09T06:38:03.236Z,3.77
2019-05-09T06:40:04.909Z,4.73
2019-05-09T06:42:08.981Z,4.10
2019-05-09T06:44:20.446Z,6.20
2019-05-09T06:46:30.610Z,4.53
2019-05-09T06:48:32.603Z,5.63
2019-05-09T06:50:34.273Z,5.20
2019-05-09T06:52:37.538Z,5.53
2019-05-09T06:54:41.747Z,6.43
2019-05-09T06:56:43.316Z,6.47
2019-05-09T06:58:44.994Z,6.10
2019-05-09T07:00:52.028Z,12.53
2019-05-09T07:03:00.723Z,7.20
2019-05-09T07:05:23.741Z,5.50
2019-05-09T07:07:43.025Z,10.90
2019-05-09T07:09:58.403Z,7.70
2019-05-09T07:11:59.957Z,9.50
2019-05-09T07:14:01.932Z,8.33
2019-05-09T07:16:03.691Z,6.73
2019-05-09T07:18:05.347Z,4.03
2019-05-09T07:20:08.368Z,5.57
2019-05-09T07:22:38.968Z,7.63
2019-05-09T07:25:06.055Z,6.63
2019-05-09T07:27:03.076Z,4.03
2019-05-09T07:29:04.753Z,5.23
2019-05-09T07:31:12.149Z,6.33
2019-05-09T07:33:32.187Z,4.17
2019-05-09T07:35:34.117Z,6.43
2019-05-09T07:37:37.843Z,3.87
2019-05-09T07:39:39.366Z,6.47
2019-05-09T07:41:41.051Z,6.13
2019-05-09T07:43:42.953Z,3.97
2019-05-09T07:46:03.088Z,8.97
2019-05-09T07:48:04.749Z,8.33
2019-05-09T07:50:08.570Z,3.20
2019-05-09T07:52:10.601Z,5.57
2019-05-09T07:54:24.015Z,6.23
2019-05-09T07:56:18.485Z,9.57
2019-05-09T07:58:19.494Z,7.70
2019-05-09T08:00:30.659Z,13.77
2019-05-09T08:02:32.326Z,4.60
2019-05-09T08:04:34.002Z,3.67
2019-05-09T08:06:37.904Z,8.53
2019-05-09T08:08:39.269Z,11.90
2019-05-09T08:10:40.945Z,5.00
2019-05-09T08:12:42.628Z,8.03
2019-05-09T08:14:44.386Z,9.33
2019-05-09T08:16:47.537Z,7.10
2019-05-09T08:18:49.417Z,8.53
2019-05-09T08:20:51.098Z,10.80
2019-05-09T08:22:58.623Z,6.13
2019-05-09T08:24:57.610Z,4.17
2019-05-09T08:26:59.749Z,2.73
2019-05-09T08:29:01.426Z,7.53
2019-05-09T08:31:03.177Z,9.67
2019-05-09T08:33:07.910Z,5.50
2019-05-09T08:35:08.718Z,6.03
2019-05-09T08:37:12.575Z,4.83
2019-05-09T08:39:13.946Z,4.03
2019-05-09T08:41:18.398Z,10.37
2019-05-09T08:43:19.899Z,4.33
2019-05-09T08:45:27.612Z,4.10
2019-05-09T08:47:27.630Z,3.80
2019-05-09T08:49:37.845Z,12.70
2019-05-09T08:51:56.121Z,7.00
2019-05-09T08:53:49.705Z,6.70
2019-05-09T08:55:51.616Z,6.87
2019-05-09T08:57:53.277Z,7.57
2019-05-09T08:59:54.938Z,10.23
2019-05-09T09:02:12.217Z,4.87
2019-05-09T09:04:00.244Z,5.80
2019-05-09T09:06:01.910Z,5.57
2019-05-09T09:08:03.582Z,6.17
2019-05-09T09:10:05.282Z,5.93
2019-05-09T09:12:25.274Z,4.00
2019-05-09T09:14:10.526Z,5.83
2019-05-09T09:16:18.833Z,7.27
2019-05-09T09:18:18.023Z,5.10
2019-05-09T09:20:19.358Z,5.70
2019-05-09T09:22:21.022Z,13.30
2019-05-09T09:24:22.682Z,6.43
2019-05-09T09:26:24.367Z,4.10
2019-05-09T09:28:27.676Z,5.57
2019-05-09T09:30:29.814Z,6.67
2019-05-09T09:32:31.856Z,6.93
2019-05-09T09:34:33.514Z,4.60
2019-05-09T09:36:35.189Z,10.80
2019-05-09T09:38:37.565Z,8.47
2019-05-09T09:40:39.428Z,5.27
2019-05-09T09:42:41.417Z,8.67
2019-05-09T09:44:43.086Z,6.20
2019-05-09T09:46:44.746Z,11.10
2019-05-09T09:48:48.072Z,7.67
2019-05-09T09:50:51.751Z,5.60
2019-05-09T09:52:53.966Z,3.20
2019-05-09T09:54:58.157Z,5.90
2019-05-09T09:56:59.738Z,7.70
2019-05-09T09:59:28.251Z,4.77
2019-05-09T10:01:32.328Z,4.30
2019-05-09T10:03:34.294Z,6.93
2019-05-09T10:05:38.075Z,8.17
2019-05-09T10:07:39.539Z,11.70
2019-05-09T10:09:41.201Z,7.90
2019-05-09T10:11:42.887Z,10.97
2019-05-09T10:13:44.633Z,13.37
2019-05-09T10:15:53.374Z,3.10
2019-05-09T10:18:08.467Z,6.43
2019-05-09T10:20:18.009Z,2.93
2019-05-09T10:22:24.687Z,6.83
2019-05-09T10:24:24.386Z,7.33
2019-05-09T10:26:28.379Z,6.70
2019-05-09T10:28:30.264Z,6.37
2019-05-09T10:30:33.331Z,6.30
2019-05-09T10:32:35.010Z,12.23
2019-05-09T10:34:37.797Z,4.17
2019-05-09T10:36:39.953Z,4.63
2019-05-09T10:38:41.609Z,7.90
2019-05-09T10:40:43.541Z,6.47
2019-05-09T10:42:50.437Z,6.60
2019-05-09T10:45:01.252Z,4.47
2019-05-09T10:47:13.998Z,3.20
2019-05-09T10:49:15.670Z,5.70
2019-05-09T10:51:18.546Z,3.13
2019-05-09T10:53:20.797Z,4.20
2019-05-09T10:55:22.466Z,4.60
2019-05-09T10:57:24.157Z,3.40
2019-05-09T10:59:26.154Z,11.83
2019-05-09T11:01:29.545Z,6.73
2019-05-09T11:03:31.682Z,4.70
2019-05-09T11:05:33.340Z,6.23
2019-05-09T11:07:35.009Z,6.10
2019-05-09T11:09:38.907Z,4.53
2019-05-09T11:11:40.336Z,9.23
2019-05-09T11:13:42.238Z,6.60
2019-05-09T11:15:44.030Z,9.87
2019-05-09T11:17:47.489Z,5.80
2019-05-09T11:19:49.328Z,3.97
2019-05-09T11:21:50.998Z,5.70
2019-05-09T11:23:52.935Z,11.90
2019-05-09T11:25:54.601Z,5.77
2019-05-09T11:28:10.080Z,6.00
2019-05-09T11:30:00.367Z,10.30
2019-05-09T11:32:02.109Z,8.93
2019-05-09T11:34:04.011Z,10.13
2019-05-09T11:36:09.434Z,1.30
2019-05-09T11:38:09.259Z,4.97
2019-05-09T11:40:11.715Z,6.40
2019-05-09T11:42:13.384Z,14.60
2019-05-09T11:44:15.054Z,3.80
2019-05-09T11:46:18.071Z,5.60
2019-05-09T11:48:20.289Z,6.37
2019-05-09T11:50:23.319Z,9.73
2019-05-09T11:52:25.248Z,6.97
2019-05-09T11:54:27.892Z,7.63
2019-05-09T11:56:29.793Z,6.23
2019-05-09T11:58:31.786Z,6.37
2019-05-09T12:00:33.441Z,5.97
2019-05-09T12:02:35.345Z,8.80
2019-05-09T12:04:38.006Z,4.83
2019-05-09T12:06:40.234Z,8.10
2019-05-09T12:08:41.902Z,10.00
2019-05-09T12:10:43.561Z,6.53
2019-05-09T12:12:47.692Z,7.70
2019-05-09T12:14:49.073Z,11.23
2019-05-09T12:16:51.054Z,8.10
2019-05-09T12:18:53.444Z,6.90
2019-05-09T12:20:55.121Z,10.33
2019-05-09T12:22:58.453Z,6.37
2019-05-09T12:25:00.357Z,9.20
2019-05-09T12:27:03.096Z,4.80
2019-05-09T12:29:05.162Z,6.70
2019-05-09T12:31:07.859Z,7.13
2019-05-09T12:33:09.982Z,8.10
2019-05-09T12:35:11.666Z,15.87
2019-05-09T12:37:13.293Z,5.70
2019-05-09T12:39:14.973Z,4.13
2019-05-09T12:41:18.937Z,5.43
2019-05-09T12:43:20.213Z,4.20
2019-05-09T12:45:21.873Z,8.30
2019-05-09T12:47:23.581Z,11.33
2019-05-09T12:49:25.250Z,5.40
2019-05-09T12:51:28.236Z,8.90
2019-05-09T12:53:30.130Z,14.23
2019-05-09T12:55:31.801Z,6.90
2019-05-09T12:57:33.457Z,14.63
2019-05-09T12:59:46.455Z,6.43
2019-05-09T13:01:40.855Z,7.60
2019-05-09T13:03:42.262Z,5.00
2019-05-09T13:05:46.929Z,12.20
2019-05-09T13:07:48.237Z,7.07
2019-05-09T13:09:52.652Z,5.60
2019-05-09T13:11:53.805Z,5.13
2019-05-09T13:13:55.461Z,9.13
2019-05-09T13:16:43.447Z,5.40
2019-05-09T13:18:48.969Z,11.63
2019-05-09T13:20:50.978Z,7.33
2019-05-09T13:22:52.645Z,6.37
2019-05-09T13:24:54.322Z,6.90
2019-05-09T13:26:55.998Z,12.80
2019-05-09T13:28:58.827Z,12.43
2019-05-09T13:31:01.039Z,10.40
2019-05-09T13:33:02.708Z,12.03
2019-05-09T13:35:04.649Z,11.10
2019-05-09T13:37:08.806Z,10.00
2019-05-09T13:39:10.527Z,4.77
2019-05-09T13:41:12.965Z,5.87
2019-05-09T13:43:14.637Z,5.20
2019-05-09T13:45:18.458Z,17.83
2019-05-09T13:47:19.873Z,6.50
2019-05-09T13:49:21.537Z,6.93
2019-05-09T13:51:23.225Z,5.60
2019-05-09T13:53:24.885Z,4.80
2019-05-09T13:55:27.525Z,4.87
2019-05-09T13:57:29.522Z,4.20
2019-05-09T13:59:31.215Z,7.40
2019-05-09T14:01:32.870Z,5.43
2019-05-09T14:03:34.540Z,5.53
2019-05-09T14:05:36.809Z,7.07
2019-05-09T14:07:38.474Z,4.50
2019-05-09T14:09:40.137Z,4.27
2019-05-09T14:11:41.825Z,4.70
2019-05-09T14:13:43.502Z,4.20
2019-05-09T14:15:45.162Z,3.77
2019-05-09T14:17:53.166Z,6.33
2019-05-09T14:19:51.268Z,10.80
2019-05-09T14:21:53.392Z,5.23
2019-05-09T14:24:07.030Z,5.80
2019-05-09T14:25:59.164Z,5.33
2019-05-09T14:28:01.124Z,3.93
2019-05-09T14:30:03.123Z,6.70
2019-05-09T14:32:05.677Z,4.57
2019-05-09T14:34:08.779Z,3.67
2019-05-09T14:36:10.837Z,5.80
2019-05-09T14:38:12.749Z,11.00
2019-05-09T14:40:14.414Z,5.77
2019-05-09T14:42:18.604Z,3.53
2019-05-09T14:44:20.202Z,9.07
2019-05-09T14:46:22.105Z,6.67
2019-05-09T14:48:23.770Z,2.67
2019-05-09T14:50:25.457Z,3.47
2019-05-09T14:52:28.298Z,5.50
2019-05-09T14:54:30.593Z,5.27
2019-05-09T14:56:32.280Z,6.60
2019-05-09T14:58:34.233Z,3.53
2019-05-09T15:00:38.498Z,5.13
2019-05-09T15:02:39.991Z,13.83
2019-05-09T15:04:41.962Z,3.47
2019-05-09T15:06:43.634Z,12.13
2019-05-09T15:08:45.299Z,5.43
2019-05-09T15:10:46.980Z,7.50
2019-05-09T15:12:48.830Z,4.63
2019-05-09T15:14:50.821Z,4.87
2019-05-09T15:16:52.494Z,4.07
2019-05-09T15:18:54.161Z,6.50
2019-05-09T15:20:57.986Z,6.33
2019-05-09T15:22:59.666Z,9.97
2019-05-09T15:25:01.628Z,5.27
2019-05-09T15:27:03.373Z,3.30
2019-05-09T15:29:05.038Z,3.00
2019-05-09T15:31:08.873Z,2.80
2019-05-09T15:33:10.270Z,5.60
2019-05-09T15:35:11.949Z,2.83
2019-05-09T15:37:13.906Z,4.63
2019-05-09T15:39:15.582Z,1.93
2019-05-09T15:41:18.316Z,2.90
2019-05-09T15:43:20.386Z,3.87
2019-05-09T15:45:22.940Z,3.50
2019-05-09T15:47:28.643Z,5.57
2019-05-09T15:49:30.297Z,3.70
2019-05-09T15:51:32.546Z,3.03
2019-05-09T15:53:34.206Z,5.53
2019-05-09T15:55:36.120Z,4.83
2019-05-09T15:57:37.950Z,3.50
2019-05-09T15:59:40.288Z,3.33
2019-05-09T16:01:42.029Z,3.53
2019-05-09T16:03:44.016Z,2.93
2019-05-09T16:05:47.914Z,3.20
2019-05-09T16:07:49.272Z,4.00
2019-05-09T16:09:50.962Z,4.70
2019-05-09T16:11:52.621Z,2.23
2019-05-09T16:13:54.293Z,3.30
2019-05-09T16:15:57.609Z,5.50
2019-05-09T16:17:59.541Z,4.30
2019-05-09T16:20:01.209Z,6.07
2019-05-09T16:22:02.869Z,2.70
2019-05-09T16:24:04.539Z,1.83
2019-05-09T16:26:07.799Z,1.73
2019-05-09T16:28:09.914Z,2.90
2019-05-09T16:30:12.420Z,2.13
2019-05-09T16:32:14.118Z,2.03
2019-05-09T16:34:17.811Z,2.40
2019-05-09T16:36:19.353Z,1.20
2019-05-09T16:38:21.026Z,1.40
2019-05-09T16:40:23.039Z,3.87
2019-05-09T16:42:24.741Z,2.97
2019-05-09T16:44:26.426Z,2.40
2019-05-09T16:46:28.718Z,2.70
2019-05-09T16:48:30.748Z,3.00
2019-05-09T16:50:32.422Z,1.83
2019-05-09T16:52:34.079Z,8.20
2019-05-09T16:54:38.923Z,1.30
2019-05-09T16:56:40.727Z,2.43
2019-05-09T16:58:42.405Z,12.43
2019-05-09T17:00:47.850Z,1.87
2019-05-09T17:02:49.768Z,1.67
2019-05-09T17:04:51.438Z,1.73
2019-05-09T17:06:53.103Z,1.57
2019-05-09T17:08:54.786Z,9.60
2019-05-09T17:10:58.611Z,1.80
2019-05-09T17:13:00.027Z,1.50
2019-05-09T17:15:01.855Z,4.47
2019-05-09T17:17:03.522Z,9.13
2019-05-09T17:19:05.189Z,1.93
2019-05-09T17:21:21.522Z,6.20
2019-05-09T17:23:21.439Z,3.00
2019-05-09T17:25:28.378Z,1.40
2019-05-09T17:27:30.114Z,5.27
2019-05-09T17:29:32.069Z,3.27
2019-05-09T17:31:33.843Z,1.50
2019-05-09T17:33:37.778Z,2.03
2019-05-09T17:35:39.097Z,2.13
2019-05-09T17:37:40.789Z,3.20
2019-05-09T17:39:42.469Z,2.10
2019-05-09T17:41:44.141Z,3.13
2019-05-09T17:43:47.475Z,1.33
2019-05-09T17:45:49.425Z,2.33
2019-05-09T17:47:51.331Z,1.90
2019-05-09T17:49:53.034Z,1.80
2019-05-09T17:51:54.693Z,1.40
2019-05-09T17:53:58.335Z,1.13
2019-05-09T17:56:00.231Z,1.73
2019-05-09T17:58:02.166Z,3.20
2019-05-09T18:00:04.473Z,7.60
2019-05-09T18:02:08.595Z,3.60
2019-05-09T18:04:10.185Z,6.53
2019-05-09T18:06:12.098Z,1.87
2019-05-09T18:08:13.757Z,3.10
2019-05-09T18:10:18.156Z,4.03
2019-05-09T18:12:19.257Z,2.07
2019-05-09T18:14:20.933Z,2.70
2019-05-09T18:16:22.835Z,3.37
2019-05-09T18:18:24.493Z,4.83
2019-05-09T18:20:28.369Z,1.80
2019-05-09T18:22:30.345Z,2.43
2019-05-09T18:24:32.333Z,1.80
2019-05-09T18:26:34.509Z,7.83
2019-05-09T18:28:38.508Z,2.23
2019-05-09T18:30:40.609Z,3.37
2019-05-09T18:33:01.962Z,2.13
2019-05-09T18:35:11.003Z,1.50
2019-05-09T18:37:12.941Z,2.30
2019-05-09T18:39:14.930Z,3.00
2019-05-09T18:41:17.755Z,1.73
2019-05-09T18:43:19.684Z,2.83
2019-05-09T18:45:21.355Z,2.90
2019-05-09T18:47:23.017Z,2.10
2019-05-09T18:49:24.957Z,1.50
2019-05-09T18:51:28.728Z,3.27
2019-05-09T18:53:30.545Z,1.93
2019-05-09T18:55:32.800Z,4.33
2019-05-09T18:57:34.515Z,4.03
2019-05-09T18:59:36.774Z,2.07
2019-05-09T19:01:38.701Z,4.60
2019-05-09T19:03:40.620Z,2.50
2019-05-09T19:05:42.756Z,4.63
2019-05-09T19:07:44.677Z,7.07
2019-05-09T19:09:46.428Z,2.30
2019-05-09T19:11:48.497Z,2.30
2019-05-09T19:13:50.294Z,1.90
2019-05-09T19:16:02.486Z,3.10
2019-05-09T19:18:10.849Z,2.17
2019-05-09T19:20:44.105Z,2.83
2019-05-09T19:22:45.770Z,3.60
2019-05-09T19:24:47.433Z,2.40
2019-05-09T19:26:49.122Z,4.67
2019-05-09T19:28:51.106Z,3.20
2019-05-09T19:30:52.786Z,4.10
2019-05-09T19:32:54.697Z,8.57
2019-05-09T19:34:56.365Z,4.73
2019-05-09T19:36:58.332Z,3.10
2019-05-09T19:39:00.003Z,6.97
2019-05-09T19:41:01.668Z,5.43
2019-05-09T19:43:03.401Z,4.30
2019-05-09T19:45:05.168Z,4.20
2019-05-09T19:47:06.846Z,3.60
2019-05-09T19:49:08.511Z,5.87
2019-05-09T19:51:10.198Z,1.87
2019-05-09T19:53:12.122Z,13.97
2019-05-09T19:55:14.212Z,3.13
2019-05-09T19:57:17.759Z,7.23
2019-05-09T19:59:19.498Z,2.83
2019-05-09T20:01:21.172Z,5.57
2019-05-09T20:03:22.838Z,3.73
2019-05-09T20:05:24.498Z,3.67
2019-05-09T20:07:26.486Z,2.07
2019-05-09T20:09:35.052Z,4.67
2019-05-09T20:11:44.513Z,6.07
2019-05-09T20:14:08.301Z,2.60
2019-05-09T20:16:09.959Z,4.57
2019-05-09T20:18:11.637Z,19.30
2019-05-09T20:20:13.318Z,4.13
2019-05-09T20:22:15.068Z,1.83
2019-05-09T20:24:16.820Z,4.40
2019-05-09T20:26:18.557Z,2.40
2019-05-09T20:28:20.233Z,2.00
2019-05-09T20:30:21.890Z,3.00
2019-05-09T20:32:23.654Z,7.10
2019-05-09T20:34:25.340Z,3.53
2019-05-09T20:36:27.393Z,3.43
2019-05-09T20:38:29.321Z,3.90
2019-05-09T20:40:31.284Z,7.00
2019-05-09T20:42:33.267Z,1.70
2019-05-09T20:44:35.189Z,2.50
2019-05-09T20:46:37.183Z,2.90
2019-05-09T20:48:38.857Z,1.83
2019-05-09T20:50:44.328Z,4.80
2019-05-09T20:52:44.098Z,3.13
2019-05-09T20:54:45.753Z,2.93
2019-05-09T20:56:47.502Z,2.07
2019-05-09T20:58:49.209Z,8.10
2019-05-09T21:00:50.881Z,2.00
2019-05-09T21:02:52.855Z,3.57
2019-05-09T21:04:54.521Z,3.20
2019-05-09T21:06:56.180Z,2.47
2019-05-09T21:08:58.134Z,1.80
2019-05-09T21:11:00.369Z,8.63
2019-05-09T21:13:02.057Z,2.47
2019-05-09T21:15:03.969Z,3.67
2019-05-09T21:17:05.979Z,4.27
2019-05-09T21:19:07.641Z,3.67
2019-05-09T21:21:09.322Z,3.67
2019-05-09T21:23:23.897Z,3.27
2019-05-09T21:25:14.661Z,2.17
2019-05-09T21:27:16.385Z,2.40
2019-05-09T21:29:18.066Z,1.87
2019-05-09T21:31:19.749Z,7.10
2019-05-09T21:33:21.454Z,2.67
2019-05-09T21:35:23.225Z,4.00
2019-05-09T21:37:24.970Z,3.70
2019-05-09T21:39:26.637Z,2.07
2019-05-09T21:41:28.312Z,3.13
2019-05-09T21:43:29.988Z,2.20
2019-05-09T21:45:31.662Z,5.53
2019-05-09T21:47:33.609Z,1.90
2019-05-09T21:49:35.290Z,3.07
2019-05-09T21:51:36.968Z,1.83
2019-05-09T21:53:40.934Z,5.70
2019-05-09T21:55:42.198Z,1.90
2019-05-09T21:57:44.005Z,2.90
2019-05-09T21:59:45.669Z,3.13
2019-05-09T22:01:47.333Z,1.70
2019-05-09T22:03:49.010Z,7.60
2019-05-09T22:05:50.676Z,3.00
2019-05-09T22:07:54.970Z,4.83
2019-05-09T22:09:56.667Z,4.43
2019-05-09T22:11:58.759Z,4.40
2019-05-09T22:14:00.718Z,2.73
2019-05-09T22:16:02.476Z,2.17
2019-05-09T22:18:04.164Z,1.77
2019-05-09T22:20:06.822Z,2.93
2019-05-09T22:22:09.168Z,2.50
2019-05-09T22:24:10.833Z,2.00
2019-05-09T22:26:12.502Z,3.70
2019-05-09T22:28:14.190Z,3.93
2019-05-09T22:30:15.969Z,2.80
2019-05-09T22:32:17.638Z,2.67
2019-05-09T22:34:19.590Z,1.70
2019-05-09T22:36:21.262Z,8.23
2019-05-09T22:38:22.924Z,3.43
2019-05-09T22:40:24.589Z,2.00
2019-05-09T22:42:26.265Z,5.87
2019-05-09T22:44:27.942Z,2.07
2019-05-09T22:46:29.909Z,4.90
2019-05-09T22:48:31.591Z,2.73
2019-05-09T22:50:33.245Z,2.83
2019-05-09T22:52:35.242Z,3.27
2019-05-09T22:54:36.918Z,7.50
2019-05-09T22:56:38.582Z,2.10
2019-05-09T22:58:40.265Z,2.10
2019-05-09T23:00:41.933Z,2.43
2019-05-09T23:02:43.706Z,6.23
2019-05-09T23:04:45.378Z,2.50
2019-05-09T23:06:47.037Z,3.93
2019-05-09T23:08:48.713Z,2.20
2019-05-09T23:10:53.394Z,6.97
2019-05-09T23:12:54.237Z,2.10
2019-05-09T23:14:55.928Z,3.37
2019-05-09T23:16:57.950Z,3.93
2019-05-09T23:18:59.629Z,3.40
2019-05-09T23:21:01.298Z,4.37
2019-05-09T23:23:21.353Z,3.47
2019-05-09T23:25:23.125Z,6.53
2019-05-09T23:27:24.917Z,2.33
2019-05-09T23:29:26.592Z,2.43
2019-05-09T23:31:53.743Z,7.43
2019-05-09T23:33:55.424Z,2.30
2019-05-09T23:35:57.084Z,3.17
2019-05-09T23:37:58.736Z,4.40
2019-05-09T23:40:00.406Z,6.77
2019-05-09T23:42:02.077Z,2.93
2019-05-09T23:44:03.758Z,4.23
2019-05-09T23:46:05.416Z,3.67
2019-05-09T23:48:07.080Z,4.30
2019-05-09T23:50:08.753Z,2.97
2019-05-09T23:52:10.419Z,4.40
2019-05-09T23:54:44.666Z,2.60
2019-05-09T23:56:52.743Z,2.13
2019-05-09T23:59:12.440Z,6.80
